createdAt,value
2023-05-16T00:01:35.724Z,97895.97
2023-05-16T00:04:05.418Z,97881.34
2023-05-16T00:06:35.643Z,97884.53
2023-05-16T00:09:04.694Z,97879.91
2023-05-16T00:11:33.794Z,97896.78
2023-05-16T00:14:02.995Z,97897.38
2023-05-16T00:16:32.999Z,97888.16
2023-05-16T00:19:02.732Z,97898.81
2023-05-16T00:21:31.947Z,97888.75
2023-05-16T00:24:01.030Z,97892.38
2023-05-16T00:26:30.065Z,97895.78
2023-05-16T00:28:59.164Z,97887.00
2023-05-16T00:31:28.341Z,97893.22
2023-05-16T00:33:57.468Z,97898.84
2023-05-16T00:36:27.324Z,97885.38
2023-05-16T00:38:56.505Z,97890.81
2023-05-16T00:41:26.240Z,97888.59
2023-05-16T00:43:55.315Z,97886.03
2023-05-16T00:46:24.441Z,97883.00
2023-05-16T00:48:54.645Z,97868.53
2023-05-16T00:51:24.290Z,97871.72
2023-05-16T00:53:55.061Z,97865.72
2023-05-16T00:56:24.203Z,97862.09
2023-05-16T00:58:53.334Z,97860.28
2023-05-16T01:01:26.019Z,97866.50
2023-05-16T01:03:55.466Z,97852.28
2023-05-16T01:06:24.687Z,97848.09
2023-05-16T01:08:53.796Z,97858.69
2023-05-16T01:11:36.183Z,97862.09
2023-05-16T01:14:26.689Z,97864.88
2023-05-16T01:17:08.019Z,97865.47
2023-05-16T01:19:55.927Z,97862.84
2023-05-16T01:22:51.456Z,97861.25
2023-05-16T01:25:34.385Z,97855.81
2023-05-16T01:28:05.090Z,97859.66
2023-05-16T01:30:38.855Z,97860.47
2023-05-16T01:33:08.912Z,97856.06
2023-05-16T01:35:47.060Z,97865.69
2023-05-16T01:38:26.557Z,97862.63
2023-05-16T01:41:12.980Z,97857.22
2023-05-16T01:43:45.446Z,97859.22
2023-05-16T01:46:20.642Z,97856.22
2023-05-16T01:48:54.676Z,97857.38
2023-05-16T01:51:26.527Z,97857.97
2023-05-16T01:54:01.436Z,97853.75
2023-05-16T01:56:32.566Z,97859.38
2023-05-16T01:59:02.609Z,97858.72
2023-05-16T02:01:35.137Z,97863.94
2023-05-16T02:04:04.672Z,97873.19
2023-05-16T02:06:33.890Z,97864.34
2023-05-16T02:09:03.043Z,97861.09
2023-05-16T02:11:32.111Z,97850.44
2023-05-16T02:14:01.227Z,97847.81
2023-05-16T02:16:31.567Z,97851.22
2023-05-16T02:19:01.722Z,97844.00
2023-05-16T02:21:51.311Z,97844.78
2023-05-16T02:24:20.563Z,97841.38
2023-05-16T02:26:49.621Z,97847.00
2023-05-16T02:29:18.792Z,97846.19
2023-05-16T02:31:48.303Z,97855.63
2023-05-16T02:34:17.427Z,97860.84
2023-05-16T02:36:46.581Z,97865.22
2023-05-16T02:39:15.807Z,97866.63
2023-05-16T02:41:44.848Z,97867.97
2023-05-16T02:44:14.091Z,97858.53
2023-05-16T02:46:43.916Z,97848.69
2023-05-16T02:49:13.061Z,97848.69
2023-05-16T02:51:42.148Z,97859.72
2023-05-16T02:54:11.233Z,97846.47
2023-05-16T02:56:40.347Z,97847.06
2023-05-16T02:59:09.652Z,97842.41
2023-05-16T03:01:38.752Z,97841.38
2023-05-16T03:04:08.097Z,97837.56
2023-05-16T03:06:37.178Z,97843.38
2023-05-16T03:09:07.826Z,97848.16
2023-05-16T03:11:37.839Z,97845.34
2023-05-16T03:14:07.042Z,97851.16
2023-05-16T03:16:38.831Z,97836.88
2023-05-16T03:19:08.134Z,97834.25
2023-05-16T03:21:37.324Z,97846.28
2023-05-16T03:24:06.738Z,97846.34
2023-05-16T03:26:35.877Z,97853.66
2023-05-16T03:29:04.952Z,97844.06
2023-05-16T03:31:34.154Z,97837.75
2023-05-16T03:34:03.904Z,97838.16
2023-05-16T03:36:33.050Z,97850.72
2023-05-16T03:39:02.190Z,97863.94
2023-05-16T03:41:31.431Z,97871.13
2023-05-16T03:44:00.810Z,97859.84
2023-05-16T03:46:29.931Z,97844.88
2023-05-16T03:48:59.204Z,97849.25
2023-05-16T03:51:28.357Z,97847.22
2023-05-16T03:53:58.090Z,97845.63
2023-05-16T03:56:27.318Z,97846.78
2023-05-16T03:58:56.438Z,97855.00
2023-05-16T04:01:25.718Z,97847.94
2023-05-16T04:03:54.797Z,97842.72
2023-05-16T04:06:23.913Z,97854.78
2023-05-16T04:08:53.136Z,97855.59
2023-05-16T04:11:22.243Z,97852.91
2023-05-16T04:13:51.730Z,97849.78
2023-05-16T04:16:20.928Z,97841.28
2023-05-16T04:18:50.097Z,97827.53
2023-05-16T04:21:19.153Z,97829.50
2023-05-16T04:23:48.836Z,97823.81
2023-05-16T04:26:18.004Z,97822.50
2023-05-16T04:28:47.056Z,97828.31
2023-05-16T04:31:16.631Z,97830.69
2023-05-16T04:33:46.074Z,97836.03
2023-05-16T04:36:15.210Z,97849.63
2023-05-16T04:38:44.379Z,97843.28
2023-05-16T04:41:13.965Z,97842.19
2023-05-16T04:43:44.336Z,97845.28
2023-05-16T04:46:13.686Z,97848.41
2023-05-16T04:48:42.802Z,97838.41
2023-05-16T04:51:12.200Z,97840.13
2023-05-16T04:53:41.237Z,97843.53
2023-05-16T04:56:10.309Z,97844.38
2023-05-16T04:58:41.072Z,97848.38
2023-05-16T05:01:12.047Z,97858.66
2023-05-16T05:03:41.135Z,97855.69
2023-05-16T05:06:10.187Z,97850.69
2023-05-16T05:08:39.271Z,97846.16
2023-05-16T05:11:08.411Z,97860.50
2023-05-16T05:13:37.444Z,97867.81
2023-05-16T05:16:06.925Z,97876.13
2023-05-16T05:18:36.183Z,97872.94
2023-05-16T05:21:05.356Z,97881.34
2023-05-16T05:23:35.110Z,97884.75
2023-05-16T05:26:06.368Z,97894.66
2023-05-16T05:28:35.554Z,97892.69
2023-05-16T05:31:08.332Z,97887.88
2023-05-16T05:33:37.616Z,97898.31
2023-05-16T05:36:07.026Z,97894.06
2023-05-16T05:38:36.341Z,97881.56
2023-05-16T05:42:35.278Z,97872.78
2023-05-16T05:45:05.000Z,97885.78
2023-05-16T05:47:34.190Z,97889.66
2023-05-16T05:50:04.263Z,97899.72
2023-05-16T05:52:33.610Z,97897.47
2023-05-16T05:55:02.675Z,97902.72
2023-05-16T05:57:32.804Z,97894.78
2023-05-16T06:00:01.998Z,97894.72
2023-05-16T06:02:37.384Z,97887.75
2023-05-16T06:05:07.101Z,97881.66
2023-05-16T06:07:36.183Z,97878.69
2023-05-16T06:10:06.138Z,97882.44
2023-05-16T06:12:35.208Z,97876.66
2023-05-16T06:15:04.462Z,97875.06
2023-05-16T06:17:33.892Z,97879.63
2023-05-16T06:20:03.034Z,97886.66
2023-05-16T06:22:33.244Z,97893.63
2023-05-16T06:25:02.392Z,97887.22
2023-05-16T06:27:32.753Z,97883.16
2023-05-16T06:30:01.882Z,97875.38
2023-05-16T06:32:33.071Z,97870.78
2023-05-16T06:35:02.204Z,97880.19
2023-05-16T06:37:32.554Z,97874.16
2023-05-16T06:40:01.722Z,97871.88
2023-05-16T06:42:30.989Z,97865.88
2023-05-16T06:45:00.242Z,97868.28
2023-05-16T06:47:29.367Z,97865.72
2023-05-16T06:49:58.516Z,97871.88
2023-05-16T06:52:27.776Z,97878.28
2023-05-16T06:54:56.848Z,97889.22
2023-05-16T06:57:26.295Z,97894.03
2023-05-16T06:59:55.460Z,97890.63
2023-05-16T07:02:24.774Z,97876.66
2023-05-16T07:04:54.154Z,97870.88
2023-05-16T07:07:23.267Z,97863.78
2023-05-16T07:09:52.433Z,97864.56
2023-05-16T07:12:21.564Z,97858.47
2023-05-16T07:14:50.739Z,97851.88
2023-05-16T07:17:19.887Z,97848.72
2023-05-16T07:19:50.306Z,97862.63
2023-05-16T07:22:19.903Z,97865.50
2023-05-16T07:24:49.074Z,97870.81
2023-05-16T07:27:18.259Z,97866.41
2023-05-16T07:29:47.492Z,97857.81
2023-05-16T07:32:16.804Z,97856.06
2023-05-16T07:34:46.290Z,97854.91
2023-05-16T07:37:16.370Z,97862.63
2023-05-16T07:39:45.533Z,97864.25
2023-05-16T07:42:14.672Z,97865.63
2023-05-16T07:44:43.775Z,97876.22
2023-05-16T07:47:12.937Z,97864.09
2023-05-16T07:49:42.159Z,97868.06
2023-05-16T07:52:11.296Z,97862.25
2023-05-16T07:54:40.982Z,97850.34
2023-05-16T07:57:10.546Z,97850.59
2023-05-16T07:59:39.818Z,97856.69
2023-05-16T08:02:09.364Z,97859.34
2023-05-16T08:04:38.852Z,97848.47
2023-05-16T08:07:08.260Z,97844.25
2023-05-16T08:09:37.417Z,97839.22
2023-05-16T08:12:07.099Z,97839.75
2023-05-16T08:14:37.169Z,97834.22
2023-05-16T08:17:06.431Z,97828.91
2023-05-16T08:19:35.995Z,97827.03
2023-05-16T08:22:06.968Z,97842.91
2023-05-16T08:24:36.277Z,97838.13
2023-05-16T08:27:05.715Z,97846.06
2023-05-16T08:29:34.907Z,97849.50
2023-05-16T08:32:04.360Z,97850.28
2023-05-16T08:34:33.647Z,97850.81
2023-05-16T08:37:02.837Z,97850.84
2023-05-16T08:39:32.242Z,97855.88
2023-05-16T08:42:01.624Z,97855.06
2023-05-16T08:44:31.043Z,97858.19
2023-05-16T08:47:08.500Z,97861.31
2023-05-16T08:49:40.681Z,97857.28
2023-05-16T08:52:10.669Z,97861.28
2023-05-16T08:54:39.923Z,97867.66
2023-05-16T08:57:09.754Z,97860.25
2023-05-16T08:59:39.044Z,97862.94
2023-05-16T09:02:09.333Z,97862.16
2023-05-16T09:04:39.325Z,97857.69
2023-05-16T09:07:08.555Z,97859.81
2023-05-16T09:09:37.634Z,97861.66
2023-05-16T09:12:07.730Z,97864.81
2023-05-16T09:14:37.657Z,97859.00
2023-05-16T09:17:11.639Z,97850.25
2023-05-16T09:19:43.403Z,97843.91
2023-05-16T09:22:13.904Z,97841.25
2023-05-16T09:24:44.138Z,97842.84
2023-05-16T09:27:16.324Z,97851.81
2023-05-16T09:29:46.956Z,97849.19
2023-05-16T09:32:17.419Z,97851.28
2023-05-16T09:34:49.410Z,97856.03
2023-05-16T09:37:19.480Z,97853.09
2023-05-16T09:39:50.838Z,97849.38
2023-05-16T09:42:20.887Z,97852.78
2023-05-16T09:44:52.138Z,97859.09
2023-05-16T09:47:22.585Z,97852.69
2023-05-16T09:49:54.946Z,97855.28
2023-05-16T09:52:27.373Z,97853.38
2023-05-16T09:54:56.492Z,97846.72
2023-05-16T09:57:27.293Z,97843.03
2023-05-16T10:00:01.360Z,97852.78
2023-05-16T10:02:32.209Z,97856.19
2023-05-16T10:05:01.433Z,97848.25
2023-05-16T10:07:32.858Z,97849.28
2023-05-16T10:10:07.902Z,97847.13
2023-05-16T10:12:38.356Z,97839.94
2023-05-16T10:15:08.253Z,97841.75
2023-05-16T10:17:40.594Z,97845.91
2023-05-16T10:20:11.619Z,97848.00
2023-05-16T10:22:43.534Z,97835.84
2023-05-16T10:25:24.779Z,97822.19
2023-05-16T10:27:55.428Z,97824.03
2023-05-16T10:30:24.534Z,97827.69
2023-05-16T10:32:53.885Z,97825.50
2023-05-16T10:35:23.499Z,97834.38
2023-05-16T10:37:53.321Z,97826.59
2023-05-16T10:40:23.172Z,97817.84
2023-05-16T10:43:03.004Z,97805.47
2023-05-16T10:45:32.536Z,97813.13
2023-05-16T10:48:04.792Z,97807.81
2023-05-16T10:50:45.662Z,97807.53
2023-05-16T10:53:31.461Z,97809.63
2023-05-16T10:56:03.761Z,97808.03
2023-05-16T10:58:38.711Z,97808.22
2023-05-16T11:01:26.007Z,97797.44
2023-05-16T11:03:58.720Z,97793.88
2023-05-16T11:06:34.195Z,97793.91
2023-05-16T11:09:11.118Z,97785.41
2023-05-16T11:11:49.725Z,97797.09
2023-05-16T11:14:29.979Z,97797.41
2023-05-16T11:17:13.987Z,97783.91
2023-05-16T11:19:49.314Z,97781.25
2023-05-16T11:22:24.725Z,97779.38
2023-05-16T11:25:08.401Z,97773.25
2023-05-16T11:27:48.435Z,97769.00
2023-05-16T11:30:19.923Z,97766.84
2023-05-16T11:32:50.736Z,97765.00
2023-05-16T11:35:20.085Z,97762.03
2023-05-16T11:37:50.654Z,97753.53
2023-05-16T11:40:19.811Z,97757.50
2023-05-16T11:42:49.869Z,97756.13
2023-05-16T11:45:24.614Z,97752.38
2023-05-16T11:47:53.891Z,97750.13
2023-05-16T11:50:23.758Z,97744.25
2023-05-16T11:52:54.609Z,97749.94
2023-05-16T11:55:40.351Z,97746.69
2023-05-16T11:58:12.416Z,97742.91
2023-05-16T12:00:51.882Z,97747.09
2023-05-16T12:03:21.607Z,97747.78
2023-05-16T12:05:55.180Z,97743.22
2023-05-16T12:08:27.115Z,97751.56
2023-05-16T12:10:56.426Z,97750.16
2023-05-16T12:13:25.981Z,97760.66
2023-05-16T12:15:55.520Z,97758.25
2023-05-16T12:18:25.447Z,97753.56
2023-05-16T12:20:54.686Z,97737.78
2023-05-16T12:23:23.929Z,97732.63
2023-05-16T12:25:55.557Z,97720.84
2023-05-16T12:28:24.723Z,97723.34
2023-05-16T12:30:53.837Z,97727.03
2023-05-16T12:33:23.116Z,97722.34
2023-05-16T12:35:53.123Z,97719.47
2023-05-16T12:38:22.541Z,97717.94
2023-05-16T12:40:58.295Z,97713.47
2023-05-16T12:43:28.654Z,97700.78
2023-05-16T12:45:58.680Z,97703.44
2023-05-16T12:48:35.354Z,97685.47
2023-05-16T12:51:12.627Z,97696.06
2023-05-16T12:53:57.463Z,97694.22
2023-05-16T12:56:28.369Z,97688.72
2023-05-16T12:58:57.631Z,97694.81
2023-05-16T13:01:26.775Z,97696.16
2023-05-16T13:03:56.143Z,97702.22
2023-05-16T13:06:25.350Z,97691.69
2023-05-16T13:08:54.625Z,97692.97
2023-05-16T13:11:25.041Z,97692.66
2023-05-16T13:13:54.189Z,97697.34
2023-05-16T13:16:23.450Z,97698.38
2023-05-16T13:18:52.702Z,97687.75
2023-05-16T13:21:22.391Z,97681.09
2023-05-16T13:23:51.581Z,97693.41
2023-05-16T13:26:21.641Z,97689.94
2023-05-16T13:28:54.906Z,97692.03
2023-05-16T13:31:24.071Z,97694.97
2023-05-16T13:33:53.187Z,97685.25
2023-05-16T13:36:22.440Z,97691.13
2023-05-16T13:38:51.587Z,97702.44
2023-05-16T13:41:20.890Z,97692.97
2023-05-16T13:43:49.986Z,97687.97
2023-05-16T13:46:19.300Z,97674.81
2023-05-16T13:48:48.928Z,97671.16
2023-05-16T13:51:18.256Z,97670.66
2023-05-16T13:53:47.535Z,97678.00
2023-05-16T13:56:16.665Z,97680.06
2023-05-16T13:59:00.788Z,97678.41
2023-05-16T14:01:31.696Z,97675.25
2023-05-16T14:04:01.539Z,97676.28
2023-05-16T14:06:31.455Z,97672.06
2023-05-16T14:09:00.591Z,97666.78
2023-05-16T14:11:29.859Z,97664.41
2023-05-16T14:13:59.180Z,97659.91
2023-05-16T14:16:29.430Z,97669.09
2023-05-16T14:18:58.704Z,97660.34
2023-05-16T14:21:27.888Z,97662.69
2023-05-16T14:23:57.012Z,97663.50
2023-05-16T14:26:26.664Z,97660.44
2023-05-16T14:28:57.043Z,97648.38
2023-05-16T14:31:26.290Z,97650.78
2023-05-16T14:33:55.464Z,97648.69
2023-05-16T14:36:25.397Z,97640.25
2023-05-16T14:38:54.564Z,97637.84
2023-05-16T14:41:23.752Z,97635.19
2023-05-16T14:43:52.917Z,97635.13
2023-05-16T14:46:22.094Z,97636.69
2023-05-16T14:48:51.398Z,97641.63
2023-05-16T14:51:20.540Z,97646.84
2023-05-16T14:53:49.680Z,97657.28
2023-05-16T14:56:18.869Z,97653.03
2023-05-16T14:58:48.196Z,97647.75
2023-05-16T15:01:17.332Z,97652.47
2023-05-16T15:03:55.375Z,97658.28
2023-05-16T15:06:25.360Z,97658.53
2023-05-16T15:08:54.985Z,97658.03
2023-05-16T15:11:24.113Z,97658.56
2023-05-16T15:13:54.149Z,97648.59
2023-05-16T15:16:23.484Z,97651.59
2023-05-16T15:18:53.155Z,97645.59
2023-05-16T15:21:22.310Z,97647.72
2023-05-16T15:23:52.046Z,97645.16
2023-05-16T15:26:22.578Z,97635.41
2023-05-16T15:28:52.200Z,97630.41
2023-05-16T15:31:22.091Z,97633.59
2023-05-16T15:33:51.311Z,97627.28
2023-05-16T15:36:20.700Z,97627.56
2023-05-16T15:38:50.035Z,97626.75
2023-05-16T15:41:43.190Z,97627.03
2023-05-16T15:44:09.032Z,97623.66
2023-05-16T15:46:39.037Z,97612.63
2023-05-16T15:49:09.460Z,97615.28
2023-05-16T15:51:38.876Z,97615.59
2023-05-16T15:54:08.163Z,97618.75
2023-05-16T15:56:37.389Z,97602.47
2023-05-16T15:59:07.585Z,97603.59
2023-05-16T16:01:36.811Z,97604.16
2023-05-16T16:04:07.095Z,97607.06
2023-05-16T16:06:36.520Z,97612.56
2023-05-16T16:09:05.736Z,97607.47
2023-05-16T16:11:35.073Z,97599.56
2023-05-16T16:14:04.436Z,97600.31
2023-05-16T16:16:33.732Z,97592.63
2023-05-16T16:19:03.060Z,97596.75
2023-05-16T16:21:33.224Z,97602.78
2023-05-16T16:24:02.351Z,97591.97
2023-05-16T16:26:31.920Z,97596.94
2023-05-16T16:29:01.295Z,97590.03
2023-05-16T16:31:30.516Z,97593.19
2023-05-16T16:33:59.780Z,97596.06
2023-05-16T16:36:29.110Z,97611.63
2023-05-16T16:38:59.538Z,97609.47
2023-05-16T16:41:28.735Z,97619.22
2023-05-16T16:43:57.858Z,97625.00
2023-05-16T16:46:27.065Z,97621.81
2023-05-16T16:48:56.273Z,97613.91
2023-05-16T16:51:25.618Z,97616.19
2023-05-16T16:53:54.699Z,97616.44
2023-05-16T16:56:23.799Z,97618.50
2023-05-16T16:58:53.435Z,97627.44
2023-05-16T17:01:22.992Z,97635.28
2023-05-16T17:03:52.169Z,97631.06
2023-05-16T17:06:21.631Z,97628.97
2023-05-16T17:08:50.720Z,97631.63
2023-05-16T17:11:23.536Z,97630.03
2023-05-16T17:13:59.144Z,97626.84
2023-05-16T17:16:29.440Z,97624.69
2023-05-16T17:18:58.954Z,97616.78
2023-05-16T17:21:28.490Z,97608.38
2023-05-16T17:24:00.611Z,97612.59
2023-05-16T17:26:30.526Z,97610.94
2023-05-16T17:29:04.657Z,97604.88
2023-05-16T17:31:33.888Z,97604.09
2023-05-16T17:34:03.095Z,97602.53
2023-05-16T17:36:32.366Z,97607.78
2023-05-16T17:39:01.868Z,97607.72
2023-05-16T17:41:31.252Z,97604.53
2023-05-16T17:44:00.699Z,97604.28
2023-05-16T17:46:30.028Z,97601.91
2023-05-16T17:48:59.970Z,97597.69
2023-05-16T17:51:29.489Z,97605.56
2023-05-16T17:53:59.156Z,97602.66
2023-05-16T17:56:28.526Z,97609.28
2023-05-16T17:58:57.665Z,97610.81
2023-05-16T18:01:27.140Z,97606.88
2023-05-16T18:03:57.120Z,97615.00
2023-05-16T18:06:26.526Z,97617.69
2023-05-16T18:08:55.783Z,97617.44
2023-05-16T18:11:25.265Z,97620.88
2023-05-16T18:13:54.951Z,97617.19
2023-05-16T18:16:24.513Z,97616.41
2023-05-16T18:18:54.252Z,97615.59
2023-05-16T18:21:23.574Z,97615.59
2023-05-16T18:23:52.804Z,97617.19
2023-05-16T18:26:22.317Z,97627.72
2023-05-16T18:28:52.011Z,97629.31
2023-05-16T18:31:22.287Z,97622.47
2023-05-16T18:33:52.742Z,97620.06
2023-05-16T18:36:22.092Z,97620.38
2023-05-16T18:38:51.536Z,97623.56
2023-05-16T18:41:20.795Z,97620.63
2023-05-16T18:43:51.444Z,97615.59
2023-05-16T18:46:21.270Z,97619.59
2023-05-16T18:48:51.097Z,97623.25
2023-05-16T18:51:20.657Z,97618.31
2023-05-16T18:53:50.321Z,97619.34
2023-05-16T18:56:19.889Z,97614.09
2023-05-16T18:58:49.758Z,97611.69
2023-05-16T19:01:22.773Z,97610.16
2023-05-16T19:03:52.845Z,97608.31
2023-05-16T19:06:22.347Z,97611.97
2023-05-16T19:08:51.836Z,97608.81
2023-05-16T19:11:22.566Z,97602.75
2023-05-16T19:13:54.237Z,97594.56
2023-05-16T19:16:23.500Z,97597.19
2023-05-16T19:18:52.887Z,97607.97
2023-05-16T19:21:22.734Z,97600.84
2023-05-16T19:23:52.313Z,97594.81
2023-05-16T19:26:21.827Z,97599.03
2023-05-16T19:28:51.965Z,97600.06
2023-05-16T19:31:21.727Z,97591.38
2023-05-16T19:33:51.045Z,97592.97
2023-05-16T19:36:21.713Z,97600.63
2023-05-16T19:38:51.594Z,97601.41
2023-05-16T19:41:22.166Z,97597.75
2023-05-16T19:43:51.570Z,97599.81
2023-05-16T19:46:20.817Z,97603.00
2023-05-16T19:48:50.115Z,97594.56
2023-05-16T19:51:29.523Z,97596.16
2023-05-16T19:54:06.731Z,97598.78
2023-05-16T19:56:35.873Z,97589.78
2023-05-16T19:59:04.944Z,97594.28
2023-05-16T20:01:34.176Z,97595.03
2023-05-16T20:04:05.575Z,97600.31
2023-05-16T20:06:37.360Z,97600.84
2023-05-16T20:09:07.410Z,97605.09
2023-05-16T20:11:37.265Z,97593.03
2023-05-16T20:14:06.510Z,97598.81
2023-05-16T20:16:35.817Z,97598.59
2023-05-16T20:19:05.227Z,97606.47
2023-05-16T20:21:34.432Z,97606.53
2023-05-16T20:24:06.133Z,97602.56
2023-05-16T20:26:35.623Z,97590.19
2023-05-16T20:29:04.824Z,97582.56
2023-05-16T20:31:34.014Z,97587.56
2023-05-16T20:34:03.212Z,97587.84
2023-05-16T20:36:32.341Z,97572.84
2023-05-16T20:39:01.648Z,97577.88
2023-05-16T20:41:31.037Z,97572.63
2023-05-16T20:44:00.261Z,97571.03
2023-05-16T20:46:29.461Z,97567.06
2023-05-16T20:48:58.644Z,97576.00
2023-05-16T20:51:27.860Z,97568.34
2023-05-16T20:53:56.961Z,97560.66
2023-05-16T20:56:26.465Z,97554.53
2023-05-16T20:58:55.661Z,97562.41
2023-05-16T21:01:24.816Z,97557.13
2023-05-16T21:03:53.897Z,97568.47
2023-05-16T21:06:23.037Z,97561.28
2023-05-16T21:08:52.241Z,97568.94
2023-05-16T21:11:21.968Z,97575.00
2023-05-16T21:13:51.190Z,97572.38
2023-05-16T21:16:20.269Z,97568.66
2023-05-16T21:18:49.682Z,97566.50
2023-05-16T21:21:18.936Z,97572.31
2023-05-16T21:23:48.059Z,97572.03
2023-05-16T21:26:17.232Z,97575.19
2023-05-16T21:31:20.547Z,97572.88
2023-05-16T21:33:52.149Z,97567.06
2023-05-16T21:36:22.307Z,97566.56
2023-05-16T21:38:51.401Z,97564.44
2023-05-16T21:41:21.739Z,97560.22
2023-05-16T21:43:51.010Z,97569.94
2023-05-16T21:46:20.080Z,97568.34
2023-05-16T21:48:49.345Z,97569.63
2023-05-16T21:51:19.231Z,97560.41
2023-05-16T21:53:48.397Z,97548.50
2023-05-16T21:56:17.926Z,97559.50
2023-05-16T21:58:47.045Z,97541.03
2023-05-16T22:01:16.652Z,97543.66
2023-05-16T22:03:45.984Z,97543.63
2023-05-16T22:06:15.137Z,97547.28
2023-05-16T22:08:44.234Z,97553.34
2023-05-16T22:11:13.563Z,97536.75
2023-05-16T22:13:42.778Z,97538.84
2023-05-16T22:16:11.942Z,97538.31
2023-05-16T22:18:41.534Z,97532.03
2023-05-16T22:21:11.487Z,97537.75
2023-05-16T22:23:40.549Z,97537.28
2023-05-16T22:26:09.760Z,97536.47
2023-05-16T22:28:39.078Z,97534.66
2023-05-16T22:31:08.231Z,97533.84
2023-05-16T22:33:37.444Z,97540.16
2023-05-16T22:36:06.824Z,97544.38
2023-05-16T22:38:35.981Z,97546.19
2023-05-16T22:41:05.186Z,97553.28
2023-05-16T22:43:34.395Z,97543.00
2023-05-16T22:46:03.623Z,97547.78
2023-05-16T22:48:32.767Z,97554.88
2023-05-16T22:51:02.672Z,97539.84
2023-05-16T22:53:31.863Z,97542.78
2023-05-16T22:56:01.132Z,97547.00
2023-05-16T22:58:30.439Z,97549.91
2023-05-16T23:01:01.362Z,97546.00
2023-05-16T23:03:30.704Z,97543.38
2023-05-16T23:05:59.900Z,97537.56
2023-05-16T23:08:29.056Z,97538.91
2023-05-16T23:10:58.142Z,97531.03
2023-05-16T23:13:27.472Z,97536.31
2023-05-16T23:15:56.618Z,97529.78
2023-05-16T23:18:25.820Z,97521.34
2023-05-16T23:20:54.945Z,97523.38
2023-05-16T23:23:24.210Z,97517.53
2023-05-16T23:25:53.360Z,97518.19
2023-05-16T23:28:22.702Z,97517.59
2023-05-16T23:30:51.893Z,97524.56
2023-05-16T23:33:21.099Z,97529.19
2023-05-16T23:35:50.318Z,97518.06
2023-05-16T23:38:19.399Z,97521.41
2023-05-16T23:40:48.561Z,97516.63
2023-05-16T23:43:17.737Z,97522.63
2023-05-16T23:45:46.973Z,97526.75
2023-05-16T23:48:16.589Z,97522.25
2023-05-16T23:50:45.817Z,97527.50
2023-05-16T23:53:15.064Z,97526.94
2023-05-16T23:55:44.325Z,97530.59
2023-05-16T23:58:13.427Z,97523.47
